Time;durP1;ratioP1;P1;durP2;ratioP2;P2;SDS_P1;SDS_P2;PMS_P1;PMS_P2;Temp;Humidity;BMP_temperature;BMP_pressure;BME280_temperature;BME280_humidity;BME280_pressure;Samples;Min_cycle;Max_cycle;Signal;HPM_P1;HPM_P2
2022/01/09 00:00:09;;;;;;;;;;;21.60;42.70;;;;;;683061;28;1327;-89
2022/01/09 00:00:31;;;;;;;;;;;21.60;42.80;;;;;;683080;28;1991;-84
2022/01/09 00:00:51;;;;;;;;;;;21.60;42.80;;;;;;682735;28;1278;-85
2022/01/09 00:01:12;;;;;;;;;;;21.60;42.80;;;;;;682963;28;1224;-86
2022/01/09 00:01:33;;;;;;;;;;;21.60;42.80;;;;;;683081;28;1436;-86
2022/01/09 00:01:53;;;;;;;;;;;21.60;43.80;;;;;;683449;28;1244;-88
2022/01/09 00:02:14;;;;;;;;;;;21.60;42.80;;;;;;683109;28;1315;-83
2022/01/09 00:02:34;;;;;;;;;;;21.60;42.80;;;;;;683247;28;1443;-84
2022/01/09 00:02:55;;;;;;;;;;;21.60;42.70;;;;;;683002;28;1291;-87
2022/01/09 00:03:16;;;;;;;;;;;21.60;42.80;;;;;;682958;28;1319;-84
2022/01/09 00:03:36;;;;;;;;;;;21.60;42.80;;;;;;682911;28;1472;-84
2022/01/09 00:03:57;;;;;;;;;;;21.60;42.80;;;;;;682586;28;1524;-85
2022/01/09 00:04:17;;;;;;;;;;;21.60;42.80;;;;;;683040;28;1144;-86
2022/01/09 00:04:38;;;;;;;;;;;21.60;42.90;;;;;;682500;28;1259;-84
2022/01/09 00:04:58;;;;;;;;;;;21.60;42.80;;;;;;682142;28;1197;-84
2022/01/09 00:05:19;;;;;;;;;;;21.60;42.80;;;;;;682101;28;1456;-81
2022/01/09 00:05:40;;;;;;;;;;;21.60;42.80;;;;;;682529;28;1326;-85
2022/01/09 00:06:00;;;;;;;;;;;21.60;42.80;;;;;;682532;28;1212;-87
2022/01/09 00:06:21;;;;;;;;;;;21.60;42.80;;;;;;682154;28;1266;-82
2022/01/09 00:06:42;;;;;;;;;;;21.60;42.80;;;;;;682329;28;1362;-87
2022/01/09 00:07:03;;;;;;;;;;;21.60;42.80;;;;;;682147;28;1433;-84
2022/01/09 00:07:23;;;;;;;;;;;21.60;42.90;;;;;;682229;28;1290;-82
2022/01/09 00:07:44;;;;;;;;;;;21.60;42.80;;;;;;682142;28;1399;-84
2022/01/09 00:08:05;;;;;;;;;;;21.60;42.90;;;;;;682273;28;1173;-82
2022/01/09 00:08:25;;;;;;;;;;;21.60;42.90;;;;;;682469;28;1309;-83
2022/01/09 00:08:46;;;;;;;;;;;21.50;43.00;;;;;;682432;28;1228;-89
2022/01/09 00:09:06;;;;;;;;;;;21.60;42.90;;;;;;682126;28;1285;-82
2022/01/09 00:09:28;;;;;;;;;;;21.60;42.90;;;;;;682313;28;1466;-81
2022/01/09 00:09:49;;;;;;;;;;;21.60;42.90;;;;;;682293;28;1362;-83
2022/01/09 00:10:10;;;;;;;;;;;21.60;42.90;;;;;;682465;28;1193;-92
2022/01/09 00:10:32;;;;;;;;;;;21.60;42.90;;;;;;683002;28;1449;-81
2022/01/09 00:10:53;;;;;;;;;;;21.60;42.90;;;;;;682415;28;1331;-88
2022/01/09 00:11:14;;;;;;;;;;;21.60;42.90;;;;;;682467;28;1247;-82
2022/01/09 00:11:35;;;;;;;;;;;21.60;42.90;;;;;;682933;28;1255;-91
2022/01/09 00:11:55;;;;;;;;;;;21.60;42.90;;;;;;682535;28;1407;-86
2022/01/09 00:12:16;;;;;;;;;;;21.50;42.90;;;;;;682199;28;1240;-80
2022/01/09 00:12:37;;;;;;;;;;;21.60;43.00;;;;;;682409;28;1279;-87
2022/01/09 00:12:57;;;;;;;;;;;21.60;42.90;;;;;;682489;28;1518;-84
2022/01/09 00:13:18;;;;;;;;;;;21.50;43.00;;;;;;682124;28;1253;-91
2022/01/09 00:13:39;;;;;;;;;;;21.60;43.10;;;;;;682214;28;1243;-83
2022/01/09 00:13:59;;;;;;;;;;;21.60;43.10;;;;;;682259;28;1490;-91
2022/01/09 00:14:20;;;;;;;;;;;21.60;43.00;;;;;;682097;28;1282;-88
2022/01/09 00:14:40;;;;;;;;;;;21.50;43.00;;;;;;683126;28;1181;-87
2022/01/09 00:15:01;;;;;;;;;;;21.60;43.00;;;;;;682512;28;1475;-91
2022/01/09 00:15:22;;;;;;;;;;;21.50;43.00;;;;;;682351;28;1346;-82
2022/01/09 00:15:43;;;;;;;;;;;21.50;42.90;;;;;;682655;28;1165;-82
2022/01/09 00:16:04;;;;;;;;;;;21.50;42.90;;;;;;682300;28;1490;-82
2022/01/09 00:16:25;;;;;;;;;;;21.50;42.90;;;;;;682319;28;1252;-93
2022/01/09 00:16:45;;;;;;;;;;;21.50;42.90;;;;;;682615;28;1212;-84
2022/01/09 00:17:06;;;;;;;;;;;21.50;43.00;;;;;;682698;28;1474;-83
2022/01/09 00:17:26;;;;;;;;;;;21.60;43.00;;;;;;681898;28;1310;-84
2022/01/09 00:17:47;;;;;;;;;;;21.60;43.00;;;;;;682575;28;1196;-82
2022/01/09 00:18:07;;;;;;;;;;;21.50;43.00;;;;;;682469;28;1474;-91
2022/01/09 00:18:28;;;;;;;;;;;21.60;43.00;;;;;;682644;28;1306;-94
2022/01/09 00:18:49;;;;;;;;;;;21.50;43.10;;;;;;682758;28;1207;-90
2022/01/09 00:19:10;;;;;;;;;;;21.50;43.10;;;;;;682521;28;1380;-90
2022/01/09 00:19:30;;;;;;;;;;;21.50;43.10;;;;;;682244;28;1256;-87
2022/01/09 00:19:51;;;;;;;;;;;21.50;43.00;;;;;;683108;28;1204;-86
2022/01/09 00:20:12;;;;;;;;;;;21.50;43.10;;;;;;682272;28;1897;-84
2022/01/09 00:20:32;;;;;;;;;;;21.50;43.00;;;;;;682526;28;1915;-81
2022/01/09 00:20:53;;;;;;;;;;;21.50;43.00;;;;;;682876;28;1221;-82
2022/01/09 00:21:13;;;;;;;;;;;21.50;43.00;;;;;;682563;28;1459;-82
2022/01/09 00:21:34;;;;;;;;;;;21.50;43.10;;;;;;682534;28;1172;-86
2022/01/09 00:21:55;;;;;;;;;;;21.50;43.10;;;;;;682897;28;1170;-85
2022/01/09 00:22:19;;;;;;;;;;;21.50;43.20;;;;;;682526;28;1383;-88
2022/01/09 00:22:48;;;;;;;;;;;21.50;43.20;;;;;;682549;28;1353;-90
2022/01/09 00:23:10;;;;;;;;;;;21.50;43.20;;;;;;685218;28;1322;-95
2022/01/09 00:23:31;;;;;;;;;;;21.50;43.20;;;;;;685239;28;1441;-87
2022/01/09 00:23:52;;;;;;;;;;;21.50;43.20;;;;;;685341;28;1432;-93
2022/01/09 00:24:12;;;;;;;;;;;21.50;43.20;;;;;;685053;28;1298;-89
2022/01/09 00:24:33;;;;;;;;;;;21.50;43.30;;;;;;685014;28;1227;-86
2022/01/09 00:24:53;;;;;;;;;;;21.50;43.20;;;;;;684932;28;1122;-81
2022/01/09 00:25:16;;;;;;;;;;;21.50;43.20;;;;;;682815;28;1587;-83
2022/01/09 00:25:36;;;;;;;;;;;21.50;43.20;;;;;;684743;28;1299;-91
2022/01/09 00:25:57;;;;;;;;;;;21.50;43.30;;;;;;685296;28;1279;-87
2022/01/09 00:26:17;;;;;;;;;;;21.50;43.20;;;;;;682049;28;1176;-87
2022/01/09 00:26:42;;;;;;;;;;;21.50;43.30;;;;;;682266;28;1340;-88
2022/01/09 00:27:02;;;;;;;;;;;21.50;43.30;;;;;;682248;28;1363;-82
2022/01/09 00:27:23;;;;;;;;;;;21.50;43.30;;;;;;682662;28;1323;-80
2022/01/09 00:27:44;;;;;;;;;;;21.50;43.40;;;;;;682864;28;1708;-87
2022/01/09 00:28:04;;;;;;;;;;;21.50;43.30;;;;;;682479;28;1425;-80
2022/01/09 00:28:25;;;;;;;;;;;21.50;43.40;;;;;;682262;28;1358;-79
2022/01/09 00:28:45;;;;;;;;;;;21.50;43.40;;;;;;683314;28;1415;-79
2022/01/09 00:29:07;;;;;;;;;;;21.50;43.40;;;;;;682827;28;1256;-79
2022/01/09 00:29:27;;;;;;;;;;;21.50;43.40;;;;;;683407;28;1480;-88
2022/01/09 00:29:48;;;;;;;;;;;21.50;43.40;;;;;;682936;28;1474;-87
2022/01/09 00:30:10;;;;;;;;;;;21.50;43.40;;;;;;683012;28;1337;-79
2022/01/09 00:30:31;;;;;;;;;;;21.50;43.40;;;;;;682906;28;1244;-82
2022/01/09 00:30:51;;;;;;;;;;;21.50;43.40;;;;;;682833;28;1203;-83
2022/01/09 00:31:12;;;;;;;;;;;21.50;43.50;;;;;;683261;28;1212;-84
2022/01/09 00:31:33;;;;;;;;;;;21.50;43.60;;;;;;683374;28;1200;-88
2022/01/09 00:31:53;;;;;;;;;;;21.50;43.60;;;;;;683770;28;1152;-80
2022/01/09 00:32:14;;;;;;;;;;;21.50;43.50;;;;;;683368;28;1651;-85
2022/01/09 00:32:34;;;;;;;;;;;21.50;43.60;;;;;;683363;28;1308;-82
2022/01/09 00:32:55;;;;;;;;;;;21.50;43.50;;;;;;683265;28;1236;-83
2022/01/09 00:33:15;;;;;;;;;;;21.50;43.60;;;;;;682912;28;1137;-80
2022/01/09 00:33:36;;;;;;;;;;;21.50;43.60;;;;;;682986;28;1519;-87
2022/01/09 00:33:57;;;;;;;;;;;21.50;44.70;;;;;;683378;28;1176;-83
2022/01/09 00:34:17;;;;;;;;;;;21.50;43.60;;;;;;682752;28;1275;-88
2022/01/09 00:34:38;;;;;;;;;;;21.50;43.60;;;;;;683039;28;1234;-79
2022/01/09 00:34:58;;;;;;;;;;;21.50;43.60;;;;;;683703;28;1267;-86
2022/01/09 00:35:19;;;;;;;;;;;21.50;43.60;;;;;;683216;28;1515;-79
2022/01/09 00:35:39;;;;;;;;;;;21.50;43.60;;;;;;682968;28;1315;-77
2022/01/09 00:36:00;;;;;;;;;;;21.40;43.60;;;;;;683913;28;1677;-90
2022/01/09 00:36:20;;;;;;;;;;;21.40;43.50;;;;;;684794;28;1294;-83
2022/01/09 00:36:41;;;;;;;;;;;21.40;43.60;;;;;;683237;28;1231;-79
2022/01/09 00:37:02;;;;;;;;;;;21.50;43.70;;;;;;683199;28;1234;-80
2022/01/09 00:37:22;;;;;;;;;;;21.40;43.60;;;;;;682347;28;1182;-80
2022/01/09 00:37:43;;;;;;;;;;;21.40;43.50;;;;;;683015;28;1188;-79
2022/01/09 00:38:03;;;;;;;;;;;21.50;43.60;;;;;;682508;28;1684;-79
2022/01/09 00:38:24;;;;;;;;;;;21.50;43.70;;;;;;683488;28;1266;-86
2022/01/09 00:38:44;;;;;;;;;;;21.40;43.60;;;;;;683114;28;1315;-81
2022/01/09 00:39:05;;;;;;;;;;;21.40;43.60;;;;;;684926;28;1510;-81
2022/01/09 00:39:25;;;;;;;;;;;21.40;43.60;;;;;;682544;28;1310;-84
2022/01/09 00:39:46;;;;;;;;;;;21.40;43.60;;;;;;681323;28;1366;-80
2022/01/09 00:40:08;;;;;;;;;;;21.40;43.60;;;;;;680840;29;1472;-81
2022/01/09 00:40:29;;;;;;;;;;;21.40;44.70;;;;;;680102;29;1984;-81
2022/01/09 00:40:49;;;;;;;;;;;21.40;43.60;;;;;;680421;29;1232;-78
2022/01/09 00:41:10;;;;;;;;;;;21.40;43.70;;;;;;680749;28;1229;-78
2022/01/09 00:41:30;;;;;;;;;;;21.40;43.70;;;;;;683488;28;1335;-80
2022/01/09 00:41:51;;;;;;;;;;;21.40;43.80;;;;;;683316;28;1203;-81
2022/01/09 00:42:12;;;;;;;;;;;21.40;43.80;;;;;;683437;28;1549;-82
2022/01/09 00:42:32;;;;;;;;;;;21.40;43.80;;;;;;683162;28;1319;-84
2022/01/09 00:42:53;;;;;;;;;;;21.40;43.70;;;;;;683356;28;1248;-86
2022/01/09 00:43:13;;;;;;;;;;;21.40;43.70;;;;;;682515;28;1542;-85
2022/01/09 00:43:34;;;;;;;;;;;21.40;43.80;;;;;;682489;28;1295;-86
2022/01/09 00:43:54;;;;;;;;;;;21.40;43.70;;;;;;682554;28;1240;-84
2022/01/09 00:44:15;;;;;;;;;;;21.40;43.70;;;;;;682225;28;1463;-83
2022/01/09 00:44:36;;;;;;;;;;;21.40;44.80;;;;;;682173;28;1374;-87
2022/01/09 00:44:56;;;;;;;;;;;21.40;43.70;;;;;;682302;28;1314;-82
2022/01/09 00:45:17;;;;;;;;;;;21.40;43.70;;;;;;682160;28;1399;-81
2022/01/09 00:45:39;;;;;;;;;;;21.40;43.70;;;;;;681993;28;1346;-86
2022/01/09 00:46:00;;;;;;;;;;;21.40;43.70;;;;;;682526;28;1220;-91
2022/01/09 00:46:21;;;;;;;;;;;21.40;43.70;;;;;;682180;28;1192;-94
2022/01/09 00:46:41;;;;;;;;;;;21.40;43.70;;;;;;682464;28;1180;-80
2022/01/09 00:47:02;;;;;;;;;;;21.40;43.70;;;;;;682355;28;1322;-88
2022/01/09 00:47:23;;;;;;;;;;;21.40;43.80;;;;;;682191;28;1177;-80
2022/01/09 00:47:43;;;;;;;;;;;21.40;43.70;;;;;;682167;28;1248;-85
2022/01/09 00:48:04;;;;;;;;;;;21.40;43.80;;;;;;682236;28;1303;-86
2022/01/09 00:48:25;;;;;;;;;;;21.40;43.70;;;;;;682439;28;1457;-85
2022/01/09 00:48:45;;;;;;;;;;;21.40;43.60;;;;;;684456;28;1491;-81
2022/01/09 00:49:06;;;;;;;;;;;21.40;43.70;;;;;;684641;28;1365;-81
2022/01/09 00:49:27;;;;;;;;;;;21.40;43.70;;;;;;684399;28;1328;-80
2022/01/09 00:49:48;;;;;;;;;;;21.40;43.60;;;;;;684758;28;1219;-83
2022/01/09 00:50:09;;;;;;;;;;;21.40;43.70;;;;;;684853;28;1193;-90
2022/01/09 00:50:29;;;;;;;;;;;21.40;43.70;;;;;;684970;28;1438;-90
2022/01/09 00:50:50;;;;;;;;;;;21.40;43.70;;;;;;684911;28;1184;-84
2022/01/09 00:51:11;;;;;;;;;;;21.40;43.70;;;;;;684607;28;1283;-86
2022/01/09 00:51:31;;;;;;;;;;;21.40;43.70;;;;;;682358;28;1486;-84
2022/01/09 00:51:52;;;;;;;;;;;21.40;43.80;;;;;;682288;28;1172;-85
2022/01/09 00:52:13;;;;;;;;;;;21.40;43.70;;;;;;682831;28;1539;-82
2022/01/09 00:52:33;;;;;;;;;;;21.40;43.80;;;;;;682320;28;1424;-83
2022/01/09 00:52:54;;;;;;;;;;;21.40;43.80;;;;;;682571;28;1224;-89
2022/01/09 00:53:14;;;;;;;;;;;21.40;43.80;;;;;;682353;28;1520;-85
2022/01/09 00:53:35;;;;;;;;;;;21.40;43.80;;;;;;682079;28;1353;-83
2022/01/09 00:53:55;;;;;;;;;;;21.40;43.70;;;;;;682273;28;1462;-83
2022/01/09 00:54:16;;;;;;;;;;;21.40;43.80;;;;;;682659;28;1377;-93
2022/01/09 00:54:37;;;;;;;;;;;21.50;43.80;;;;;;681838;28;1287;-81
2022/01/09 00:54:57;;;;;;;;;;;21.40;43.80;;;;;;682249;28;1231;-83
2022/01/09 00:55:18;;;;;;;;;;;21.40;43.80;;;;;;682298;28;1290;-87
2022/01/09 00:55:39;;;;;;;;;;;21.40;43.90;;;;;;682472;28;1292;-91
2022/01/09 00:55:59;;;;;;;;;;;21.40;43.90;;;;;;682073;28;1235;-89
2022/01/09 00:56:20;;;;;;;;;;;21.40;43.80;;;;;;682350;28;1263;-88
2022/01/09 00:56:40;;;;;;;;;;;21.40;43.80;;;;;;682080;28;1657;-81
2022/01/09 00:57:01;;;;;;;;;;;21.40;43.80;;;;;;682068;28;1394;-85
2022/01/09 00:57:22;;;;;;;;;;;21.40;43.80;;;;;;682402;28;1208;-87
2022/01/09 00:57:43;;;;;;;;;;;21.40;43.80;;;;;;682383;28;1414;-81
2022/01/09 00:58:04;;;;;;;;;;;21.40;43.60;;;;;;682407;28;1272;-83
2022/01/09 00:58:24;;;;;;;;;;;21.40;43.60;;;;;;682569;28;1338;-89
2022/01/09 00:58:45;;;;;;;;;;;21.40;43.60;;;;;;682188;28;1404;-84
2022/01/09 00:59:05;;;;;;;;;;;21.40;43.70;;;;;;682095;28;1418;-85
2022/01/09 00:59:26;;;;;;;;;;;21.40;43.70;;;;;;682302;28;1230;-81
2022/01/09 00:59:46;;;;;;;;;;;21.40;43.70;;;;;;682140;28;1483;-85
2022/01/09 01:00:07;;;;;;;;;;;21.40;43.70;;;;;;682110;28;1476;-81
2022/01/09 01:00:28;;;;;;;;;;;21.50;43.70;;;;;;682254;28;2015;-80
2022/01/09 01:00:48;;;;;;;;;;;21.40;43.70;;;;;;682296;28;1356;-91
2022/01/09 01:01:09;;;;;;;;;;;21.50;43.70;;;;;;682266;28;1385;-91
2022/01/09 01:01:29;;;;;;;;;;;21.40;43.70;;;;;;682618;28;1404;-88
2022/01/09 01:01:50;;;;;;;;;;;21.50;43.80;;;;;;682316;28;1356;-88
2022/01/09 01:02:11;;;;;;;;;;;21.50;43.70;;;;;;682424;28;1256;-80
2022/01/09 01:02:31;;;;;;;;;;;21.50;43.70;;;;;;682690;28;1196;-85
2022/01/09 01:02:52;;;;;;;;;;;21.50;43.70;;;;;;682295;28;1340;-90
2022/01/09 01:03:12;;;;;;;;;;;21.50;43.70;;;;;;682257;28;1334;-90
2022/01/09 01:03:33;;;;;;;;;;;21.50;43.70;;;;;;682583;28;1177;-85
2022/01/09 01:03:53;;;;;;;;;;;21.50;43.80;;;;;;682068;28;1470;-81
2022/01/09 01:04:14;;;;;;;;;;;21.50;43.70;;;;;;681856;28;1314;-86
2022/01/09 01:04:35;;;;;;;;;;;21.50;43.70;;;;;;682385;28;1244;-81
2022/01/09 01:04:56;;;;;;;;;;;21.50;44.80;;;;;;682218;28;1541;-85
2022/01/09 01:05:17;;;;;;;;;;;21.50;43.70;;;;;;682318;28;1133;-90
2022/01/09 01:05:37;;;;;;;;;;;21.50;43.70;;;;;;682334;28;1307;-81
2022/01/09 01:05:58;;;;;;;;;;;21.50;43.60;;;;;;682178;28;1553;-79
2022/01/09 01:06:18;;;;;;;;;;;21.50;43.60;;;;;;682169;28;1290;-83
2022/01/09 01:06:39;;;;;;;;;;;21.50;43.60;;;;;;682408;28;1263;-90
2022/01/09 01:06:59;;;;;;;;;;;21.50;43.60;;;;;;682269;28;1514;-82
2022/01/09 01:07:20;;;;;;;;;;;21.50;43.60;;;;;;682076;28;1263;-90
2022/01/09 01:07:41;;;;;;;;;;;21.50;43.70;;;;;;684650;28;1236;-81
2022/01/09 01:08:02;;;;;;;;;;;21.50;43.60;;;;;;684766;28;1490;-81
2022/01/09 01:08:22;;;;;;;;;;;21.50;43.60;;;;;;684231;28;1312;-93
2022/01/09 01:08:43;;;;;;;;;;;21.50;43.60;;;;;;684846;28;1208;-86
2022/01/09 01:09:03;;;;;;;;;;;21.50;43.60;;;;;;684549;28;1403;-84
2022/01/09 01:09:25;;;;;;;;;;;21.50;43.60;;;;;;684309;28;1223;-90
2022/01/09 01:09:46;;;;;;;;;;;21.50;43.70;;;;;;684936;28;1263;-91
2022/01/09 01:10:07;;;;;;;;;;;21.50;43.60;;;;;;685047;28;1422;-91
2022/01/09 01:10:28;;;;;;;;;;;21.50;43.60;;;;;;684817;28;1385;-84
2022/01/09 01:10:48;;;;;;;;;;;21.50;43.60;;;;;;685037;28;1163;-93
2022/01/09 01:11:09;;;;;;;;;;;21.50;43.60;;;;;;684658;28;1352;-83
2022/01/09 01:11:30;;;;;;;;;;;21.50;43.60;;;;;;684433;28;1196;-90
2022/01/09 01:11:51;;;;;;;;;;;21.50;43.60;;;;;;682805;28;1231;-83
2022/01/09 01:12:11;;;;;;;;;;;21.50;43.50;;;;;;682083;28;1393;-88
2022/01/09 01:12:32;;;;;;;;;;;21.50;43.50;;;;;;681829;28;1427;-85
2022/01/09 01:12:53;;;;;;;;;;;21.50;43.60;;;;;;682547;28;1366;-81
2022/01/09 01:13:14;;;;;;;;;;;21.50;43.60;;;;;;682467;28;1241;-82
2022/01/09 01:13:34;;;;;;;;;;;21.50;43.60;;;;;;682468;28;1260;-86
2022/01/09 01:13:55;;;;;;;;;;;21.50;43.60;;;;;;682457;28;1348;-86
2022/01/09 01:14:15;;;;;;;;;;;21.50;43.60;;;;;;682713;28;1273;-93
2022/01/09 01:14:36;;;;;;;;;;;21.50;43.60;;;;;;682502;28;1484;-87
2022/01/09 01:14:57;;;;;;;;;;;21.50;43.60;;;;;;682458;28;1188;-86
2022/01/09 01:15:18;;;;;;;;;;;21.50;43.70;;;;;;684652;28;1468;-88
2022/01/09 01:15:39;;;;;;;;;;;21.50;43.60;;;;;;684831;28;1477;-88
2022/01/09 01:15:59;;;;;;;;;;;21.50;43.60;;;;;;682405;28;1268;-90
2022/01/09 01:16:20;;;;;;;;;;;21.50;43.60;;;;;;682507;28;1355;-79
2022/01/09 01:16:41;;;;;;;;;;;21.50;43.60;;;;;;682211;28;1374;-83
2022/01/09 01:17:01;;;;;;;;;;;21.50;43.80;;;;;;682148;28;1430;-83
2022/01/09 01:17:22;;;;;;;;;;;21.50;43.50;;;;;;682351;28;1363;-87
2022/01/09 01:17:44;;;;;;;;;;;21.50;43.50;;;;;;682145;28;1173;-81
2022/01/09 01:18:05;;;;;;;;;;;21.50;43.40;;;;;;682101;28;1304;-81
2022/01/09 01:18:25;;;;;;;;;;;21.50;43.50;;;;;;682004;28;1463;-87
2022/01/09 01:18:46;;;;;;;;;;;21.50;43.60;;;;;;682066;28;1425;-82
2022/01/09 01:19:07;;;;;;;;;;;21.50;43.60;;;;;;682789;28;1344;-89
2022/01/09 01:19:27;;;;;;;;;;;21.50;43.60;;;;;;682988;28;1281;-86
2022/01/09 01:19:48;;;;;;;;;;;21.50;43.60;;;;;;683183;28;1258;-87
2022/01/09 01:20:09;;;;;;;;;;;21.50;43.60;;;;;;681989;28;1276;-94
2022/01/09 01:20:31;;;;;;;;;;;21.50;43.80;;;;;;682297;28;1958;-83
2022/01/09 01:20:52;;;;;;;;;;;21.50;43.70;;;;;;684575;28;1376;-86
2022/01/09 01:21:12;;;;;;;;;;;21.50;43.80;;;;;;684434;28;1487;-86
2022/01/09 01:21:35;;;;;;;;;;;21.50;43.70;;;;;;681939;28;1231;-84
2022/01/09 01:22:01;;;;;;;;;;;21.50;43.80;;;;;;682302;28;1248;-83
2022/01/09 01:22:52;;;;;;;;;;;21.50;43.80;;;;;;692645;22;1618;-90
2022/01/09 01:23:12;;;;;;;;;;;21.50;43.80;;;;;;684989;28;1188;-82
2022/01/09 01:23:33;;;;;;;;;;;21.50;43.80;;;;;;688550;28;889;-85
2022/01/09 01:23:53;;;;;;;;;;;21.50;43.90;;;;;;688565;28;901;-86
2022/01/09 01:24:14;;;;;;;;;;;21.40;43.70;;;;;;688371;28;827;-88
2022/01/09 01:24:37;;;;;;;;;;;21.40;43.70;;;;;;688554;28;898;-88
2022/01/09 01:24:58;;;;;;;;;;;21.40;43.70;;;;;;688388;28;854;-84
2022/01/09 01:25:19;;;;;;;;;;;21.40;43.70;;;;;;688813;28;816;-90
2022/01/09 01:25:40;;;;;;;;;;;21.40;43.70;;;;;;688902;28;827;-88
2022/01/09 01:26:02;;;;;;;;;;;21.40;43.80;;;;;;689812;28;811;-92
2022/01/09 01:26:22;;;;;;;;;;;21.40;43.70;;;;;;688893;28;1411;-92
2022/01/09 01:26:43;;;;;;;;;;;21.40;43.70;;;;;;688874;28;1068;-87
2022/01/09 01:27:04;;;;;;;;;;;21.40;43.70;;;;;;688632;28;1390;-85
2022/01/09 01:27:25;;;;;;;;;;;21.40;43.70;;;;;;688968;28;787;-84
2022/01/09 01:27:46;;;;;;;;;;;21.40;43.80;;;;;;686089;28;911;-85
2022/01/09 01:28:06;;;;;;;;;;;21.40;43.80;;;;;;686387;28;763;-85
2022/01/09 01:28:27;;;;;;;;;;;21.40;43.80;;;;;;686274;28;807;-82
2022/01/09 01:28:48;;;;;;;;;;;21.40;43.80;;;;;;684024;28;1143;-86
2022/01/09 01:29:10;;;;;;;;;;;21.40;43.80;;;;;;686276;28;826;-86
2022/01/09 01:29:30;;;;;;;;;;;21.40;43.90;;;;;;686620;28;1241;-91
2022/01/09 01:29:51;;;;;;;;;;;21.40;43.90;;;;;;688920;28;902;-86
2022/01/09 01:30:12;;;;;;;;;;;21.40;43.90;;;;;;689012;28;822;-87
2022/01/09 01:30:32;;;;;;;;;;;21.40;43.90;;;;;;688876;28;780;-86
2022/01/09 01:30:53;;;;;;;;;;;21.40;43.90;;;;;;688942;28;830;-86
2022/01/09 01:31:13;;;;;;;;;;;21.40;44.00;;;;;;688974;28;943;-84
2022/01/09 01:31:34;;;;;;;;;;;21.40;43.90;;;;;;689043;28;861;-81
2022/01/09 01:31:55;;;;;;;;;;;21.40;43.90;;;;;;688991;28;839;-90
2022/01/09 01:32:16;;;;;;;;;;;21.40;44.00;;;;;;689057;28;842;-85
2022/01/09 01:32:36;;;;;;;;;;;21.40;44.00;;;;;;689107;28;1297;-83
2022/01/09 01:32:57;;;;;;;;;;;21.40;44.00;;;;;;689012;28;886;-84
2022/01/09 01:33:18;;;;;;;;;;;21.40;44.00;;;;;;689075;28;945;-86
2022/01/09 01:33:39;;;;;;;;;;;21.40;44.00;;;;;;689165;28;811;-84
2022/01/09 01:33:59;;;;;;;;;;;21.40;44.00;;;;;;688942;28;706;-90
2022/01/09 01:34:20;;;;;;;;;;;21.30;44.00;;;;;;689071;28;807;-84
2022/01/09 01:34:40;;;;;;;;;;;21.30;44.00;;;;;;689110;28;922;-83
2022/01/09 01:35:01;;;;;;;;;;;21.40;44.00;;;;;;689069;28;795;-86
2022/01/09 01:35:21;;;;;;;;;;;21.40;44.10;;;;;;689071;28;953;-82
2022/01/09 01:35:42;;;;;;;;;;;21.40;44.10;;;;;;689091;28;858;-81
2022/01/09 01:36:03;;;;;;;;;;;21.40;44.10;;;;;;688689;28;996;-84
2022/01/09 01:36:24;;;;;;;;;;;21.40;44.10;;;;;;688934;28;799;-90
2022/01/09 01:36:44;;;;;;;;;;;21.40;44.20;;;;;;688935;28;870;-82
2022/01/09 01:37:05;;;;;;;;;;;21.40;44.10;;;;;;689012;28;835;-91
2022/01/09 01:37:26;;;;;;;;;;;21.40;44.10;;;;;;688856;28;973;-90
2022/01/09 01:37:46;;;;;;;;;;;21.40;44.20;;;;;;688945;28;799;-89
2022/01/09 01:38:07;;;;;;;;;;;21.40;44.30;;;;;;689225;28;914;-93
2022/01/09 01:38:27;;;;;;;;;;;21.40;44.20;;;;;;689054;28;906;-87
2022/01/09 01:38:48;;;;;;;;;;;21.40;44.30;;;;;;689060;28;870;-93
2022/01/09 01:39:08;;;;;;;;;;;21.40;44.30;;;;;;688819;28;1335;-91
2022/01/09 01:39:30;;;;;;;;;;;21.30;44.20;;;;;;689020;28;849;-87
2022/01/09 01:39:51;;;;;;;;;;;21.40;44.30;;;;;;688627;28;1321;-83
2022/01/09 01:40:18;;;;;;;;;;;21.40;44.30;;;;;;688933;28;906;-82
2022/01/09 01:40:40;;;;;;;;;;;21.30;44.30;;;;;;688925;28;1902;-86
2022/01/09 01:41:00;;;;;;;;;;;21.30;44.20;;;;;;688763;28;1104;-83
2022/01/09 01:41:24;;;;;;;;;;;21.40;44.30;;;;;;688821;28;815;-85
2022/01/09 01:41:45;;;;;;;;;;;21.40;44.20;;;;;;688838;28;807;-84
2022/01/09 01:42:05;;;;;;;;;;;21.40;44.30;;;;;;689020;28;901;-84
2022/01/09 01:42:26;;;;;;;;;;;21.40;44.30;;;;;;688799;28;1342;-88
2022/01/09 01:42:47;;;;;;;;;;;21.30;44.20;;;;;;688837;28;819;-81
2022/01/09 01:43:07;;;;;;;;;;;21.30;44.30;;;;;;689119;28;858;-80
2022/01/09 01:43:29;;;;;;;;;;;21.30;44.30;;;;;;689071;28;822;-81
2022/01/09 01:43:50;;;;;;;;;;;21.30;44.30;;;;;;688956;28;862;-80
2022/01/09 01:44:11;;;;;;;;;;;21.30;44.30;;;;;;688832;28;787;-81
2022/01/09 01:44:42;;;;;;;;;;;21.40;44.30;;;;;;688783;28;874;-79
2022/01/09 01:45:03;;;;;;;;;;;21.30;44.30;;;;;;688757;28;811;-84
2022/01/09 01:45:24;;;;;;;;;;;21.30;44.30;;;;;;688803;28;917;-83
2022/01/09 01:45:45;;;;;;;;;;;21.30;44.30;;;;;;686043;28;891;-82
2022/01/09 01:46:05;;;;;;;;;;;21.30;44.30;;;;;;688019;28;1028;-81
2022/01/09 01:46:26;;;;;;;;;;;21.30;44.30;;;;;;688789;28;799;-80
2022/01/09 01:46:47;;;;;;;;;;;21.30;44.30;;;;;;688839;28;871;-85
2022/01/09 01:47:08;;;;;;;;;;;21.30;44.30;;;;;;688874;28;795;-86
2022/01/09 01:47:29;;;;;;;;;;;21.30;44.30;;;;;;688919;28;764;-88
2022/01/09 01:47:49;;;;;;;;;;;21.30;44.30;;;;;;688979;28;799;-91
2022/01/09 01:48:11;;;;;;;;;;;21.30;44.30;;;;;;689002;28;846;-84
2022/01/09 01:48:31;;;;;;;;;;;21.30;44.30;;;;;;689029;28;881;-84
2022/01/09 01:48:52;;;;;;;;;;;21.30;44.40;;;;;;688936;28;981;-80
2022/01/09 01:49:13;;;;;;;;;;;21.30;44.30;;;;;;689047;28;815;-89
2022/01/09 01:49:34;;;;;;;;;;;21.30;44.40;;;;;;689121;28;819;-80
2022/01/09 01:49:55;;;;;;;;;;;21.30;44.50;;;;;;689025;28;826;-80
2022/01/09 01:50:16;;;;;;;;;;;21.30;44.40;;;;;;688572;28;1098;-79
2022/01/09 01:50:38;;;;;;;;;;;21.30;44.30;;;;;;686073;28;1319;-80
2022/01/09 01:50:59;;;;;;;;;;;21.30;44.40;;;;;;683465;28;886;-84
2022/01/09 01:51:20;;;;;;;;;;;21.30;44.40;;;;;;683465;28;883;-84
2022/01/09 01:51:43;;;;;;;;;;;21.30;44.40;;;;;;683540;28;890;-93
2022/01/09 01:52:04;;;;;;;;;;;21.30;45.60;;;;;;684287;28;1047;-85
2022/01/09 01:52:37;;;;;;;;;;;21.30;44.40;;;;;;687035;28;913;-91
2022/01/09 01:52:58;;;;;;;;;;;21.30;44.40;;;;;;688745;28;1037;-90
2022/01/09 01:53:20;;;;;;;;;;;21.30;44.40;;;;;;688992;28;914;-91
2022/01/09 01:53:41;;;;;;;;;;;21.30;44.40;;;;;;689108;28;873;-90
2022/01/09 01:54:02;;;;;;;;;;;21.30;44.40;;;;;;689036;28;811;-87
2022/01/09 01:54:25;;;;;;;;;;;21.30;44.40;;;;;;688926;28;814;-83
2022/01/09 01:54:45;;;;;;;;;;;21.30;44.40;;;;;;689078;28;889;-88
2022/01/09 01:55:08;;;;;;;;;;;21.30;44.50;;;;;;689074;28;1009;-89
2022/01/09 01:55:33;;;;;;;;;;;21.30;44.40;;;;;;689049;28;835;-83
2022/01/09 01:55:55;;;;;;;;;;;21.30;44.40;;;;;;689050;28;889;-84
2022/01/09 01:56:19;;;;;;;;;;;21.30;44.50;;;;;;688974;28;831;-88
2022/01/09 01:56:40;;;;;;;;;;;21.30;44.50;;;;;;689118;28;827;-88
2022/01/09 01:57:02;;;;;;;;;;;21.30;44.50;;;;;;688719;28;1125;-86
2022/01/09 01:57:22;;;;;;;;;;;21.30;44.40;;;;;;688762;28;910;-87
2022/01/09 01:57:43;;;;;;;;;;;21.30;44.50;;;;;;688848;28;921;-85
2022/01/09 01:58:05;;;;;;;;;;;21.30;44.50;;;;;;688827;28;823;-90
2022/01/09 01:58:26;;;;;;;;;;;21.30;44.50;;;;;;688885;28;874;-91
2022/01/09 01:58:47;;;;;;;;;;;21.30;44.50;;;;;;688840;28;969;-83
2022/01/09 01:59:08;;;;;;;;;;;21.30;44.60;;;;;;689057;28;878;-83
2022/01/09 01:59:28;;;;;;;;;;;21.30;44.50;;;;;;689079;28;845;-84
2022/01/09 01:59:49;;;;;;;;;;;21.30;44.60;;;;;;689043;28;798;-87
2022/01/09 02:00:11;;;;;;;;;;;21.30;44.50;;;;;;689040;28;811;-91
2022/01/09 02:00:32;;;;;;;;;;;21.30;44.50;;;;;;688933;28;1956;-86
2022/01/09 02:00:53;;;;;;;;;;;21.30;44.50;;;;;;689012;28;893;-89
2022/01/09 02:01:14;;;;;;;;;;;21.30;44.60;;;;;;689044;28;918;-83
2022/01/09 02:01:36;;;;;;;;;;;21.30;44.60;;;;;;689007;28;791;-83
2022/01/09 02:01:58;;;;;;;;;;;21.30;44.60;;;;;;689021;28;870;-88
2022/01/09 02:02:19;;;;;;;;;;;21.30;44.60;;;;;;688975;28;831;-85
2022/01/09 02:02:39;;;;;;;;;;;21.20;44.50;;;;;;688987;28;854;-90
2022/01/09 02:03:00;;;;;;;;;;;21.30;44.60;;;;;;689040;28;803;-88
2022/01/09 02:03:21;;;;;;;;;;;21.30;44.60;;;;;;689009;28;850;-81
2022/01/09 02:03:41;;;;;;;;;;;21.30;44.60;;;;;;689276;28;831;-84
2022/01/09 02:04:03;;;;;;;;;;;21.30;44.50;;;;;;688815;28;992;-87
2022/01/09 02:04:24;;;;;;;;;;;21.30;44.50;;;;;;688905;28;846;-85
2022/01/09 02:04:44;;;;;;;;;;;21.20;44.40;;;;;;689145;28;894;-92
2022/01/09 02:05:05;;;;;;;;;;;21.30;44.50;;;;;;689069;28;873;-85
2022/01/09 02:05:26;;;;;;;;;;;21.30;44.50;;;;;;688934;28;886;-90
2022/01/09 02:05:48;;;;;;;;;;;21.30;44.50;;;;;;688988;28;830;-89
2022/01/09 02:06:10;;;;;;;;;;;21.30;44.50;;;;;;686618;28;1221;-82
2022/01/09 02:06:32;;;;;;;;;;;21.20;44.40;;;;;;686353;28;1596;-81
2022/01/09 02:06:53;;;;;;;;;;;21.30;44.50;;;;;;686045;28;823;-85